sensor_id;sensor_type;location;lat;lon;timestamp;P1;durP1;ratioP1;P2;durP2;ratioP2
80619;SDS011;69979;53.682;-2.690;2023-08-12T00:02:18;9;;;8;;
80619;SDS011;69979;53.682;-2.690;2023-08-12T00:04:45;6;;;5;;
80619;SDS011;69979;53.682;-2.690;2023-08-12T00:07:09;6;;;5;;
80619;SDS011;69979;53.682;-2.690;2023-08-12T00:09:34;8;;;7;;
80619;SDS011;69979;53.682;-2.690;2023-08-12T00:12:00;5;;;3;;
80619;SDS011;69979;53.682;-2.690;2023-08-12T00:14:25;7;;;7;;
80619;SDS011;69979;53.682;-2.690;2023-08-12T00:16:50;7;;;6;;
80619;SDS011;69979;53.682;-2.690;2023-08-12T00:19:16;6;;;5;;
80619;SDS011;69979;53.682;-2.690;2023-08-12T00:21:41;8;;;7;;
80619;SDS011;69979;53.682;-2.690;2023-08-12T00:24:06;7;;;7;;
80619;SDS011;69979;53.682;-2.690;2023-08-12T00:26:32;6;;;5;;
80619;SDS011;69979;53.682;-2.690;2023-08-12T00:28:57;8;;;7;;
80619;SDS011;69979;53.682;-2.690;2023-08-12T00:31:23;7;;;7;;
80619;SDS011;69979;53.682;-2.690;2023-08-12T00:33:48;6;;;6;;
80619;SDS011;69979;53.682;-2.690;2023-08-12T00:36:13;6;;;5;;
80619;SDS011;69979;53.682;-2.690;2023-08-12T00:38:39;7;;;7;;
80619;SDS011;69979;53.682;-2.690;2023-08-12T00:41:04;6;;;3;;
80619;SDS011;69979;53.682;-2.690;2023-08-12T00:43:29;7;;;7;;
80619;SDS011;69979;53.682;-2.690;2023-08-12T00:45:55;5;;;5;;
80619;SDS011;69979;53.682;-2.690;2023-08-12T00:48:20;6;;;6;;
80619;SDS011;69979;53.682;-2.690;2023-08-12T00:50:45;5;;;5;;
80619;SDS011;69979;53.682;-2.690;2023-08-12T00:53:11;7;;;6;;
80619;SDS011;69979;53.682;-2.690;2023-08-12T00:55:36;7;;;6;;
80619;SDS011;69979;53.682;-2.690;2023-08-12T00:58:02;6;;;5;;
80619;SDS011;69979;53.682;-2.690;2023-08-12T01:00:27;5;;;5;;
80619;SDS011;69979;53.682;-2.690;2023-08-12T01:02:52;6;;;6;;
80619;SDS011;69979;53.682;-2.690;2023-08-12T01:05:18;7;;;6;;
80619;SDS011;69979;53.682;-2.690;2023-08-12T01:07:43;6;;;5;;
80619;SDS011;69979;53.682;-2.690;2023-08-12T01:10:09;6;;;6;;
80619;SDS011;69979;53.682;-2.690;2023-08-12T01:12:36;6;;;6;;
80619;SDS011;69979;53.682;-2.690;2023-08-12T01:15:01;6;;;5;;
80619;SDS011;69979;53.682;-2.690;2023-08-12T01:17:25;7;;;7;;
80619;SDS011;69979;53.682;-2.690;2023-08-12T01:19:50;9;;;7;;
80619;SDS011;69979;53.682;-2.690;2023-08-12T01:22:16;7;;;7;;
80619;SDS011;69979;53.682;-2.690;2023-08-12T01:24:41;5;;;5;;
80619;SDS011;69979;53.682;-2.690;2023-08-12T01:27:07;5;;;5;;
80619;SDS011;69979;53.682;-2.690;2023-08-12T01:29:32;7;;;7;;
80619;SDS011;69979;53.682;-2.690;2023-08-12T01:32:00;6;;;5;;
80619;SDS011;69979;53.682;-2.690;2023-08-12T01:34:25;7;;;7;;
80619;SDS011;69979;53.682;-2.690;2023-08-12T01:36:49;5;;;5;;
80619;SDS011;69979;53.682;-2.690;2023-08-12T01:39:14;5;;;4;;
80619;SDS011;69979;53.682;-2.690;2023-08-12T01:41:39;8;;;8;;
80619;SDS011;69979;53.682;-2.690;2023-08-12T01:44:05;9;;;8;;
80619;SDS011;69979;53.682;-2.690;2023-08-12T01:46:30;6;;;6;;
80619;SDS011;69979;53.682;-2.690;2023-08-12T01:48:55;6;;;6;;
80619;SDS011;69979;53.682;-2.690;2023-08-12T01:51:21;5;;;5;;
80619;SDS011;69979;53.682;-2.690;2023-08-12T01:53:46;10;;;8;;
80619;SDS011;69979;53.682;-2.690;2023-08-12T01:56:11;6;;;6;;
80619;SDS011;69979;53.682;-2.690;2023-08-12T01:58:37;6;;;5;;
80619;SDS011;69979;53.682;-2.690;2023-08-12T02:01:03;6;;;5;;
80619;SDS011;69979;53.682;-2.690;2023-08-12T02:03:28;11;;;8;;
80619;SDS011;69979;53.682;-2.690;2023-08-12T02:05:53;4;;;4;;
80619;SDS011;69979;53.682;-2.690;2023-08-12T02:08:19;6;;;6;;
80619;SDS011;69979;53.682;-2.690;2023-08-12T02:10:44;7;;;6;;
80619;SDS011;69979;53.682;-2.690;2023-08-12T02:13:09;6;;;6;;
80619;SDS011;69979;53.682;-2.690;2023-08-12T02:15:35;6;;;5;;
80619;SDS011;69979;53.682;-2.690;2023-08-12T02:18:00;5;;;5;;
80619;SDS011;69979;53.682;-2.690;2023-08-12T02:20:26;5;;;5;;
80619;SDS011;69979;53.682;-2.690;2023-08-12T02:22:51;7;;;6;;
80619;SDS011;69979;53.682;-2.690;2023-08-12T02:25:16;9;;;7;;
80619;SDS011;69979;53.682;-2.690;2023-08-12T02:27:42;5;;;4;;
80619;SDS011;69979;53.682;-2.690;2023-08-12T02:30:07;4;;;4;;
80619;SDS011;69979;53.682;-2.690;2023-08-12T02:32:32;7;;;6;;
80619;SDS011;69979;53.682;-2.690;2023-08-12T02:34:58;7;;;7;;
80619;SDS011;69979;53.682;-2.690;2023-08-12T02:37:23;6;;;5;;
80619;SDS011;69979;53.682;-2.690;2023-08-12T02:39:48;5;;;5;;
80619;SDS011;69979;53.682;-2.690;2023-08-12T02:42:14;6;;;6;;
80619;SDS011;69979;53.682;-2.690;2023-08-12T02:44:39;5;;;4;;
80619;SDS011;69979;53.682;-2.690;2023-08-12T02:47:04;5;;;5;;
80619;SDS011;69979;53.682;-2.690;2023-08-12T02:49:29;6;;;5;;
80619;SDS011;69979;53.682;-2.690;2023-08-12T02:51:55;6;;;6;;
80619;SDS011;69979;53.682;-2.690;2023-08-12T02:54:20;5;;;5;;
80619;SDS011;69979;53.682;-2.690;2023-08-12T02:56:45;5;;;5;;
80619;SDS011;69979;53.682;-2.690;2023-08-12T02:59:11;9;;;8;;
80619;SDS011;69979;53.682;-2.690;2023-08-12T03:01:36;7;;;6;;
80619;SDS011;69979;53.682;-2.690;2023-08-12T03:04:02;6;;;6;;
80619;SDS011;69979;53.682;-2.690;2023-08-12T03:06:27;6;;;6;;
80619;SDS011;69979;53.682;-2.690;2023-08-12T03:08:53;7;;;7;;
80619;SDS011;69979;53.682;-2.690;2023-08-12T03:11:19;8;;;7;;
80619;SDS011;69979;53.682;-2.690;2023-08-12T03:13:44;9;;;8;;
80619;SDS011;69979;53.682;-2.690;2023-08-12T03:16:10;8;;;7;;
80619;SDS011;69979;53.682;-2.690;2023-08-12T03:18:35;9;;;6;;
80619;SDS011;69979;53.682;-2.690;2023-08-12T03:21:04;7;;;7;;
80619;SDS011;69979;53.682;-2.690;2023-08-12T03:23:26;5;;;5;;
80619;SDS011;69979;53.682;-2.690;2023-08-12T03:25:51;12;;;8;;
80619;SDS011;69979;53.682;-2.690;2023-08-12T03:28:17;6;;;6;;
80619;SDS011;69979;53.682;-2.690;2023-08-12T03:30:42;7;;;6;;
80619;SDS011;69979;53.682;-2.690;2023-08-12T03:33:07;6;;;6;;
80619;SDS011;69979;53.682;-2.690;2023-08-12T03:35:33;7;;;6;;
80619;SDS011;69979;53.682;-2.690;2023-08-12T03:37:58;7;;;7;;
80619;SDS011;69979;53.682;-2.690;2023-08-12T03:40:24;6;;;6;;
80619;SDS011;69979;53.682;-2.690;2023-08-12T03:42:49;5;;;5;;
80619;SDS011;69979;53.682;-2.690;2023-08-12T03:45:15;5;;;5;;
80619;SDS011;69979;53.682;-2.690;2023-08-12T03:47:40;8;;;7;;
80619;SDS011;69979;53.682;-2.690;2023-08-12T03:50:06;6;;;6;;
80619;SDS011;69979;53.682;-2.690;2023-08-12T03:52:31;5;;;5;;
80619;SDS011;69979;53.682;-2.690;2023-08-12T03:54:56;5;;;5;;
80619;SDS011;69979;53.682;-2.690;2023-08-12T03:57:22;6;;;5;;
80619;SDS011;69979;53.682;-2.690;2023-08-12T03:59:47;6;;;4;;
80619;SDS011;69979;53.682;-2.690;2023-08-12T04:02:12;7;;;6;;
80619;SDS011;69979;53.682;-2.690;2023-08-12T04:04:38;8;;;6;;
80619;SDS011;69979;53.682;-2.690;2023-08-12T04:07:03;8;;;6;;
80619;SDS011;69979;53.682;-2.690;2023-08-12T04:09:28;7;;;6;;
80619;SDS011;69979;53.682;-2.690;2023-08-12T04:11:54;9;;;7;;
80619;SDS011;69979;53.682;-2.690;2023-08-12T04:14:19;9;;;8;;
80619;SDS011;69979;53.682;-2.690;2023-08-12T04:16:44;8;;;8;;
80619;SDS011;69979;53.682;-2.690;2023-08-12T04:19:10;6;;;5;;
80619;SDS011;69979;53.682;-2.690;2023-08-12T04:21:35;5;;;5;;
80619;SDS011;69979;53.682;-2.690;2023-08-12T04:24:00;5;;;5;;
80619;SDS011;69979;53.682;-2.690;2023-08-12T04:26:26;9;;;8;;
80619;SDS011;69979;53.682;-2.690;2023-08-12T04:28:51;7;;;6;;
80619;SDS011;69979;53.682;-2.690;2023-08-12T04:31:17;8;;;6;;
80619;SDS011;69979;53.682;-2.690;2023-08-12T04:33:42;6;;;6;;
80619;SDS011;69979;53.682;-2.690;2023-08-12T04:36:07;7;;;6;;
80619;SDS011;69979;53.682;-2.690;2023-08-12T04:38:33;7;;;7;;
80619;SDS011;69979;53.682;-2.690;2023-08-12T04:40:58;8;;;8;;
80619;SDS011;69979;53.682;-2.690;2023-08-12T04:43:23;6;;;6;;
80619;SDS011;69979;53.682;-2.690;2023-08-12T04:45:49;8;;;6;;
80619;SDS011;69979;53.682;-2.690;2023-08-12T04:48:14;8;;;8;;
80619;SDS011;69979;53.682;-2.690;2023-08-12T04:50:41;8;;;7;;
80619;SDS011;69979;53.682;-2.690;2023-08-12T04:53:05;6;;;5;;
80619;SDS011;69979;53.682;-2.690;2023-08-12T04:55:31;8;;;8;;
80619;SDS011;69979;53.682;-2.690;2023-08-12T04:57:56;9;;;8;;
80619;SDS011;69979;53.682;-2.690;2023-08-12T05:00:21;8;;;7;;
80619;SDS011;69979;53.682;-2.690;2023-08-12T05:02:47;6;;;5;;
80619;SDS011;69979;53.682;-2.690;2023-08-12T05:05:13;10;;;7;;
80619;SDS011;69979;53.682;-2.690;2023-08-12T05:07:38;9;;;8;;
80619;SDS011;69979;53.682;-2.690;2023-08-12T05:10:03;9;;;9;;
80619;SDS011;69979;53.682;-2.690;2023-08-12T05:12:29;8;;;8;;
80619;SDS011;69979;53.682;-2.690;2023-08-12T05:14:54;7;;;7;;
80619;SDS011;69979;53.682;-2.690;2023-08-12T05:17:19;9;;;8;;
80619;SDS011;69979;53.682;-2.690;2023-08-12T05:19:45;7;;;7;;
80619;SDS011;69979;53.682;-2.690;2023-08-12T05:22:10;11;;;10;;
80619;SDS011;69979;53.682;-2.690;2023-08-12T05:24:35;11;;;9;;
80619;SDS011;69979;53.682;-2.690;2023-08-12T05:27:00;8;;;8;;
80619;SDS011;69979;53.682;-2.690;2023-08-12T05:29:26;7;;;7;;
80619;SDS011;69979;53.682;-2.690;2023-08-12T05:31:52;10;;;9;;
80619;SDS011;69979;53.682;-2.690;2023-08-12T05:34:17;12;;;10;;
80619;SDS011;69979;53.682;-2.690;2023-08-12T05:36:42;9;;;8;;
80619;SDS011;69979;53.682;-2.690;2023-08-12T05:39:07;10;;;9;;
80619;SDS011;69979;53.682;-2.690;2023-08-12T05:41:33;9;;;9;;
80619;SDS011;69979;53.682;-2.690;2023-08-12T05:43:58;8;;;8;;
80619;SDS011;69979;53.682;-2.690;2023-08-12T05:46:24;8;;;8;;
80619;SDS011;69979;53.682;-2.690;2023-08-12T05:48:49;8;;;7;;
80619;SDS011;69979;53.682;-2.690;2023-08-12T05:51:14;10;;;8;;
80619;SDS011;69979;53.682;-2.690;2023-08-12T05:53:40;7;;;7;;
80619;SDS011;69979;53.682;-2.690;2023-08-12T05:56:05;8;;;8;;
80619;SDS011;69979;53.682;-2.690;2023-08-12T05:58:31;6;;;6;;
80619;SDS011;69979;53.682;-2.690;2023-08-12T06:00:56;8;;;8;;
80619;SDS011;69979;53.682;-2.690;2023-08-12T06:03:22;6;;;6;;
80619;SDS011;69979;53.682;-2.690;2023-08-12T06:05:47;11;;;8;;
80619;SDS011;69979;53.682;-2.690;2023-08-12T06:08:12;7;;;7;;
80619;SDS011;69979;53.682;-2.690;2023-08-12T06:10:38;9;;;8;;
80619;SDS011;69979;53.682;-2.690;2023-08-12T06:13:03;7;;;7;;
80619;SDS011;69979;53.682;-2.690;2023-08-12T06:15:28;9;;;9;;
80619;SDS011;69979;53.682;-2.690;2023-08-12T06:17:54;8;;;8;;
80619;SDS011;69979;53.682;-2.690;2023-08-12T06:20:19;7;;;6;;
80619;SDS011;69979;53.682;-2.690;2023-08-12T06:22:44;10;;;8;;
80619;SDS011;69979;53.682;-2.690;2023-08-12T06:25:10;7;;;7;;
80619;SDS011;69979;53.682;-2.690;2023-08-12T06:27:35;7;;;7;;
80619;SDS011;69979;53.682;-2.690;2023-08-12T06:30:01;10;;;9;;
80619;SDS011;69979;53.682;-2.690;2023-08-12T06:32:26;10;;;9;;
80619;SDS011;69979;53.682;-2.690;2023-08-12T06:34:52;7;;;6;;
80619;SDS011;69979;53.682;-2.690;2023-08-12T06:37:17;9;;;8;;
80619;SDS011;69979;53.682;-2.690;2023-08-12T06:39:42;8;;;7;;
80619;SDS011;69979;53.682;-2.690;2023-08-12T06:42:08;8;;;8;;
80619;SDS011;69979;53.682;-2.690;2023-08-12T06:44:33;10;;;7;;
80619;SDS011;69979;53.682;-2.690;2023-08-12T06:46:58;9;;;8;;
80619;SDS011;69979;53.682;-2.690;2023-08-12T06:49:24;9;;;7;;
80619;SDS011;69979;53.682;-2.690;2023-08-12T06:51:49;6;;;6;;
80619;SDS011;69979;53.682;-2.690;2023-08-12T06:54:15;6;;;6;;
80619;SDS011;69979;53.682;-2.690;2023-08-12T06:56:40;9;;;8;;
80619;SDS011;69979;53.682;-2.690;2023-08-12T06:59:05;7;;;7;;
80619;SDS011;69979;53.682;-2.690;2023-08-12T07:01:31;8;;;8;;
80619;SDS011;69979;53.682;-2.690;2023-08-12T07:03:56;5;;;5;;
80619;SDS011;69979;53.682;-2.690;2023-08-12T07:06:22;7;;;7;;
80619;SDS011;69979;53.682;-2.690;2023-08-12T07:08:47;9;;;8;;
80619;SDS011;69979;53.682;-2.690;2023-08-12T07:11:13;6;;;6;;
80619;SDS011;69979;53.682;-2.690;2023-08-12T07:13:38;11;;;9;;
80619;SDS011;69979;53.682;-2.690;2023-08-12T07:16:03;6;;;6;;
80619;SDS011;69979;53.682;-2.690;2023-08-12T07:18:29;9;;;8;;
80619;SDS011;69979;53.682;-2.690;2023-08-12T07:20:54;6;;;6;;
80619;SDS011;69979;53.682;-2.690;2023-08-12T07:23:20;7;;;6;;
80619;SDS011;69979;53.682;-2.690;2023-08-12T07:25:45;8;;;6;;
80619;SDS011;69979;53.682;-2.690;2023-08-12T07:28:11;5;;;5;;
80619;SDS011;69979;53.682;-2.690;2023-08-12T07:30:36;8;;;8;;
80619;SDS011;69979;53.682;-2.690;2023-08-12T07:33:01;5;;;5;;
80619;SDS011;69979;53.682;-2.690;2023-08-12T07:35:27;9;;;8;;
80619;SDS011;69979;53.682;-2.690;2023-08-12T07:37:53;8;;;6;;
80619;SDS011;69979;53.682;-2.690;2023-08-12T07:40:18;8;;;7;;
80619;SDS011;69979;53.682;-2.690;2023-08-12T07:42:43;6;;;6;;
80619;SDS011;69979;53.682;-2.690;2023-08-12T07:45:08;5;;;4;;
80619;SDS011;69979;53.682;-2.690;2023-08-12T07:47:33;5;;;5;;
80619;SDS011;69979;53.682;-2.690;2023-08-12T07:49:59;5;;;5;;
80619;SDS011;69979;53.682;-2.690;2023-08-12T07:52:24;8;;;5;;
80619;SDS011;69979;53.682;-2.690;2023-08-12T07:54:49;4;;;4;;
80619;SDS011;69979;53.682;-2.690;2023-08-12T07:57:15;6;;;5;;
80619;SDS011;69979;53.682;-2.690;2023-08-12T07:59:40;6;;;6;;
80619;SDS011;69979;53.682;-2.690;2023-08-12T08:02:06;5;;;5;;
80619;SDS011;69979;53.682;-2.690;2023-08-12T08:04:31;5;;;4;;
80619;SDS011;69979;53.682;-2.690;2023-08-12T08:06:56;5;;;4;;
80619;SDS011;69979;53.682;-2.690;2023-08-12T08:09:22;4;;;3;;
80619;SDS011;69979;53.682;-2.690;2023-08-12T08:11:47;9;;;7;;
80619;SDS011;69979;53.682;-2.690;2023-08-12T08:14:13;5;;;4;;
80619;SDS011;69979;53.682;-2.690;2023-08-12T08:16:38;5;;;4;;
80619;SDS011;69979;53.682;-2.690;2023-08-12T08:19:04;4;;;4;;
80619;SDS011;69979;53.682;-2.690;2023-08-12T08:21:29;9;;;8;;
80619;SDS011;69979;53.682;-2.690;2023-08-12T08:23:55;6;;;5;;
80619;SDS011;69979;53.682;-2.690;2023-08-12T08:26:20;7;;;6;;
80619;SDS011;69979;53.682;-2.690;2023-08-12T08:28:45;4;;;4;;
80619;SDS011;69979;53.682;-2.690;2023-08-12T08:31:11;6;;;6;;
80619;SDS011;69979;53.682;-2.690;2023-08-12T08:33:36;6;;;6;;
80619;SDS011;69979;53.682;-2.690;2023-08-12T08:36:02;7;;;7;;
80619;SDS011;69979;53.682;-2.690;2023-08-12T08:38:27;5;;;5;;
80619;SDS011;69979;53.682;-2.690;2023-08-12T08:40:53;5;;;5;;
80619;SDS011;69979;53.682;-2.690;2023-08-12T08:43:19;5;;;5;;
80619;SDS011;69979;53.682;-2.690;2023-08-12T08:45:43;5;;;4;;
80619;SDS011;69979;53.682;-2.690;2023-08-12T08:48:09;7;;;6;;
80619;SDS011;69979;53.682;-2.690;2023-08-12T08:50:34;8;;;7;;
80619;SDS011;69979;53.682;-2.690;2023-08-12T08:52:59;6;;;5;;
80619;SDS011;69979;53.682;-2.690;2023-08-12T08:55:25;6;;;5;;
80619;SDS011;69979;53.682;-2.690;2023-08-12T08:57:50;5;;;5;;
80619;SDS011;69979;53.682;-2.690;2023-08-12T09:00:16;8;;;7;;
80619;SDS011;69979;53.682;-2.690;2023-08-12T09:02:41;7;;;7;;
80619;SDS011;69979;53.682;-2.690;2023-08-12T09:05:07;6;;;6;;
80619;SDS011;69979;53.682;-2.690;2023-08-12T09:07:32;6;;;6;;
80619;SDS011;69979;53.682;-2.690;2023-08-12T09:09:57;4;;;4;;
80619;SDS011;69979;53.682;-2.690;2023-08-12T09:12:22;5;;;5;;
80619;SDS011;69979;53.682;-2.690;2023-08-12T09:14:48;5;;;5;;
80619;SDS011;69979;53.682;-2.690;2023-08-12T09:17:14;7;;;7;;
80619;SDS011;69979;53.682;-2.690;2023-08-12T09:19:38;4;;;4;;
80619;SDS011;69979;53.682;-2.690;2023-08-12T09:22:04;4;;;4;;
80619;SDS011;69979;53.682;-2.690;2023-08-12T09:24:29;4;;;4;;
80619;SDS011;69979;53.682;-2.690;2023-08-12T09:26:55;5;;;5;;
80619;SDS011;69979;53.682;-2.690;2023-08-12T09:29:22;7;;;7;;
80619;SDS011;69979;53.682;-2.690;2023-08-12T09:31:45;8;;;5;;
80619;SDS011;69979;53.682;-2.690;2023-08-12T09:34:11;4;;;4;;
80619;SDS011;69979;53.682;-2.690;2023-08-12T09:36:36;4;;;4;;
80619;SDS011;69979;53.682;-2.690;2023-08-12T09:39:05;5;;;3;;
80619;SDS011;69979;53.682;-2.690;2023-08-12T09:41:27;4;;;4;;
80619;SDS011;69979;53.682;-2.690;2023-08-12T09:43:52;3;;;3;;
80619;SDS011;69979;53.682;-2.690;2023-08-12T09:46:18;6;;;3;;
80619;SDS011;69979;53.682;-2.690;2023-08-12T09:48:43;3;;;3;;
80619;SDS011;69979;53.682;-2.690;2023-08-12T09:51:08;2;;;2;;
80619;SDS011;69979;53.682;-2.690;2023-08-12T09:53:34;2;;;2;;
80619;SDS011;69979;53.682;-2.690;2023-08-12T09:56:00;3;;;3;;
80619;SDS011;69979;53.682;-2.690;2023-08-12T09:58:24;2;;;1;;
80619;SDS011;69979;53.682;-2.690;2023-08-12T10:00:50;2;;;2;;
80619;SDS011;69979;53.682;-2.690;2023-08-12T10:03:15;1;;;1;;
80619;SDS011;69979;53.682;-2.690;2023-08-12T10:05:41;2;;;2;;
80619;SDS011;69979;53.682;-2.690;2023-08-12T10:08:07;2;;;2;;
80619;SDS011;69979;53.682;-2.690;2023-08-12T10:10:33;0;;;0;;
80619;SDS011;69979;53.682;-2.690;2023-08-12T10:12:57;1;;;1;;
80619;SDS011;69979;53.682;-2.690;2023-08-12T10:15:22;1;;;1;;
80619;SDS011;69979;53.682;-2.690;2023-08-12T10:17:48;2;;;1;;
80619;SDS011;69979;53.682;-2.690;2023-08-12T10:20:18;2;;;2;;
80619;SDS011;69979;53.682;-2.690;2023-08-12T10:22:39;0;;;0;;
80619;SDS011;69979;53.682;-2.690;2023-08-12T10:25:04;1;;;1;;
80619;SDS011;69979;53.682;-2.690;2023-08-12T10:27:29;1;;;1;;
80619;SDS011;69979;53.682;-2.690;2023-08-12T10:29:55;1;;;0;;
80619;SDS011;69979;53.682;-2.690;2023-08-12T10:32:20;0;;;0;;
80619;SDS011;69979;53.682;-2.690;2023-08-12T10:34:46;0;;;0;;
80619;SDS011;69979;53.682;-2.690;2023-08-12T10:37:11;4;;;3;;
80619;SDS011;69979;53.682;-2.690;2023-08-12T10:39:36;0;;;0;;
80619;SDS011;69979;53.682;-2.690;2023-08-12T10:42:02;1;;;1;;
80619;SDS011;69979;53.682;-2.690;2023-08-12T10:44:37;0;;;0;;
80619;SDS011;69979;53.682;-2.690;2023-08-12T10:46:53;0;;;0;;
80619;SDS011;69979;53.682;-2.690;2023-08-12T10:49:18;1;;;1;;
80619;SDS011;69979;53.682;-2.690;2023-08-12T10:51:44;0;;;0;;
80619;SDS011;69979;53.682;-2.690;2023-08-12T10:54:13;1;;;1;;
80619;SDS011;69979;53.682;-2.690;2023-08-12T10:59:00;1;;;1;;
80619;SDS011;69979;53.682;-2.690;2023-08-12T11:01:25;0;;;0;;
80619;SDS011;69979;53.682;-2.690;2023-08-12T11:03:50;1;;;1;;
80619;SDS011;69979;53.682;-2.690;2023-08-12T11:06:15;3;;;2;;
80619;SDS011;69979;53.682;-2.690;2023-08-12T11:08:45;1;;;1;;
80619;SDS011;69979;53.682;-2.690;2023-08-12T11:11:10;0;;;0;;
80619;SDS011;69979;53.682;-2.690;2023-08-12T11:13:31;1;;;0;;
80619;SDS011;69979;53.682;-2.690;2023-08-12T11:18:22;0;;;0;;
80619;SDS011;69979;53.682;-2.690;2023-08-12T11:20:48;0;;;0;;
80619;SDS011;69979;53.682;-2.690;2023-08-12T11:23:13;0;;;0;;
80619;SDS011;69979;53.682;-2.690;2023-08-12T11:25:39;0;;;0;;
80619;SDS011;69979;53.682;-2.690;2023-08-12T11:28:04;0;;;0;;
80619;SDS011;69979;53.682;-2.690;2023-08-12T11:30:29;0;;;0;;
80619;SDS011;69979;53.682;-2.690;2023-08-12T11:32:54;3;;;2;;
80619;SDS011;69979;53.682;-2.690;2023-08-12T11:35:20;1;;;1;;
80619;SDS011;69979;53.682;-2.690;2023-08-12T11:37:46;1;;;1;;
80619;SDS011;69979;53.682;-2.690;2023-08-12T11:40:11;1;;;1;;
80619;SDS011;69979;53.682;-2.690;2023-08-12T11:42:36;2;;;1;;
80619;SDS011;69979;53.682;-2.690;2023-08-12T11:45:01;0;;;0;;
80619;SDS011;69979;53.682;-2.690;2023-08-12T11:47:27;0;;;0;;
80619;SDS011;69979;53.682;-2.690;2023-08-12T11:49:52;0;;;0;;
80619;SDS011;69979;53.682;-2.690;2023-08-12T11:52:17;0;;;0;;
80619;SDS011;69979;53.682;-2.690;2023-08-12T11:54:43;0;;;0;;
80619;SDS011;69979;53.682;-2.690;2023-08-12T11:57:08;1;;;1;;
80619;SDS011;69979;53.682;-2.690;2023-08-12T11:59:33;1;;;1;;
80619;SDS011;69979;53.682;-2.690;2023-08-12T12:02:01;1;;;1;;
80619;SDS011;69979;53.682;-2.690;2023-08-12T12:04:24;0;;;0;;
80619;SDS011;69979;53.682;-2.690;2023-08-12T12:06:49;0;;;0;;
80619;SDS011;69979;53.682;-2.690;2023-08-12T12:09:15;1;;;1;;
80619;SDS011;69979;53.682;-2.690;2023-08-12T12:11:41;1;;;1;;
80619;SDS011;69979;53.682;-2.690;2023-08-12T12:14:06;0;;;0;;
80619;SDS011;69979;53.682;-2.690;2023-08-12T12:16:38;0;;;0;;
80619;SDS011;69979;53.682;-2.690;2023-08-12T12:18:57;1;;;1;;
80619;SDS011;69979;53.682;-2.690;2023-08-12T12:21:22;0;;;0;;
80619;SDS011;69979;53.682;-2.690;2023-08-12T12:23:47;0;;;0;;
80619;SDS011;69979;53.682;-2.690;2023-08-12T12:26:12;0;;;0;;
80619;SDS011;69979;53.682;-2.690;2023-08-12T12:28:38;0;;;0;;
80619;SDS011;69979;53.682;-2.690;2023-08-12T12:31:03;1;;;1;;
80619;SDS011;69979;53.682;-2.690;2023-08-12T12:33:29;0;;;0;;
80619;SDS011;69979;53.682;-2.690;2023-08-12T12:35:54;1;;;1;;
80619;SDS011;69979;53.682;-2.690;2023-08-12T12:38:19;2;;;2;;
80619;SDS011;69979;53.682;-2.690;2023-08-12T12:40:45;1;;;1;;
80619;SDS011;69979;53.682;-2.690;2023-08-12T12:43:10;1;;;1;;
80619;SDS011;69979;53.682;-2.690;2023-08-12T12:45:35;1;;;1;;
80619;SDS011;69979;53.682;-2.690;2023-08-12T12:48:01;2;;;1;;
80619;SDS011;69979;53.682;-2.690;2023-08-12T12:50:26;0;;;0;;
80619;SDS011;69979;53.682;-2.690;2023-08-12T12:52:52;0;;;0;;
80619;SDS011;69979;53.682;-2.690;2023-08-12T12:55:17;1;;;0;;
80619;SDS011;69979;53.682;-2.690;2023-08-12T12:57:42;1;;;1;;
80619;SDS011;69979;53.682;-2.690;2023-08-12T13:00:08;2;;;2;;
80619;SDS011;69979;53.682;-2.690;2023-08-12T13:02:33;0;;;0;;
80619;SDS011;69979;53.682;-2.690;2023-08-12T13:04:58;1;;;1;;
80619;SDS011;69979;53.682;-2.690;2023-08-12T13:07:24;0;;;0;;
80619;SDS011;69979;53.682;-2.690;2023-08-12T13:09:49;1;;;0;;
80619;SDS011;69979;53.682;-2.690;2023-08-12T13:12:15;0;;;0;;
80619;SDS011;69979;53.682;-2.690;2023-08-12T13:14:40;0;;;0;;
80619;SDS011;69979;53.682;-2.690;2023-08-12T13:17:05;1;;;1;;
80619;SDS011;69979;53.682;-2.690;2023-08-12T13:19:31;1;;;1;;
80619;SDS011;69979;53.682;-2.690;2023-08-12T13:21:56;0;;;0;;
80619;SDS011;69979;53.682;-2.690;2023-08-12T13:24:21;0;;;0;;
80619;SDS011;69979;53.682;-2.690;2023-08-12T13:26:47;1;;;1;;
80619;SDS011;69979;53.682;-2.690;2023-08-12T13:29:12;0;;;0;;
80619;SDS011;69979;53.682;-2.690;2023-08-12T13:31:38;0;;;0;;
80619;SDS011;69979;53.682;-2.690;2023-08-12T13:34:03;2;;;1;;
80619;SDS011;69979;53.682;-2.690;2023-08-12T13:36:28;0;;;0;;
80619;SDS011;69979;53.682;-2.690;2023-08-12T13:38:54;1;;;1;;
80619;SDS011;69979;53.682;-2.690;2023-08-12T13:41:19;2;;;2;;
80619;SDS011;69979;53.682;-2.690;2023-08-12T13:43:44;1;;;1;;
80619;SDS011;69979;53.682;-2.690;2023-08-12T13:46:10;1;;;1;;
80619;SDS011;69979;53.682;-2.690;2023-08-12T13:48:35;0;;;0;;
80619;SDS011;69979;53.682;-2.690;2023-08-12T13:51:01;2;;;2;;
80619;SDS011;69979;53.682;-2.690;2023-08-12T13:53:26;2;;;2;;
80619;SDS011;69979;53.682;-2.690;2023-08-12T13:55:51;2;;;1;;
80619;SDS011;69979;53.682;-2.690;2023-08-12T13:58:17;1;;;1;;
80619;SDS011;69979;53.682;-2.690;2023-08-12T14:00:42;1;;;1;;
80619;SDS011;69979;53.682;-2.690;2023-08-12T14:03:07;1;;;1;;
80619;SDS011;69979;53.682;-2.690;2023-08-12T14:05:33;3;;;3;;
80619;SDS011;69979;53.682;-2.690;2023-08-12T14:07:58;2;;;2;;
80619;SDS011;69979;53.682;-2.690;2023-08-12T14:10:23;3;;;3;;
80619;SDS011;69979;53.682;-2.690;2023-08-12T14:12:49;2;;;2;;
80619;SDS011;69979;53.682;-2.690;2023-08-12T14:15:14;4;;;2;;
80619;SDS011;69979;53.682;-2.690;2023-08-12T14:17:40;2;;;2;;
80619;SDS011;69979;53.682;-2.690;2023-08-12T14:20:06;1;;;1;;
80619;SDS011;69979;53.682;-2.690;2023-08-12T14:22:30;2;;;2;;
80619;SDS011;69979;53.682;-2.690;2023-08-12T14:24:55;2;;;1;;
80619;SDS011;69979;53.682;-2.690;2023-08-12T14:27:21;1;;;1;;
80619;SDS011;69979;53.682;-2.690;2023-08-12T14:29:46;1;;;1;;
80619;SDS011;69979;53.682;-2.690;2023-08-12T14:32:12;5;;;3;;
80619;SDS011;69979;53.682;-2.690;2023-08-12T14:34:37;2;;;2;;
80619;SDS011;69979;53.682;-2.690;2023-08-12T14:37:02;2;;;2;;
80619;SDS011;69979;53.682;-2.690;2023-08-12T14:39:28;1;;;1;;
80619;SDS011;69979;53.682;-2.690;2023-08-12T14:41:53;2;;;2;;
80619;SDS011;69979;53.682;-2.690;2023-08-12T14:44:18;1;;;1;;
80619;SDS011;69979;53.682;-2.690;2023-08-12T14:46:44;2;;;1;;
80619;SDS011;69979;53.682;-2.690;2023-08-12T14:49:09;1;;;1;;
80619;SDS011;69979;53.682;-2.690;2023-08-12T14:51:34;2;;;2;;
80619;SDS011;69979;53.682;-2.690;2023-08-12T14:54:00;1;;;1;;
80619;SDS011;69979;53.682;-2.690;2023-08-12T14:56:25;2;;;2;;
80619;SDS011;69979;53.682;-2.690;2023-08-12T14:58:51;1;;;1;;
80619;SDS011;69979;53.682;-2.690;2023-08-12T15:01:16;3;;;3;;
80619;SDS011;69979;53.682;-2.690;2023-08-12T15:03:41;2;;;2;;
80619;SDS011;69979;53.682;-2.690;2023-08-12T15:06:07;1;;;1;;
80619;SDS011;69979;53.682;-2.690;2023-08-12T15:08:32;0;;;0;;
80619;SDS011;69979;53.682;-2.690;2023-08-12T15:10:57;2;;;2;;
80619;SDS011;69979;53.682;-2.690;2023-08-12T15:13:23;2;;;2;;
80619;SDS011;69979;53.682;-2.690;2023-08-12T15:15:49;1;;;1;;
80619;SDS011;69979;53.682;-2.690;2023-08-12T15:18:14;2;;;2;;
80619;SDS011;69979;53.682;-2.690;2023-08-12T15:20:39;1;;;1;;
80619;SDS011;69979;53.682;-2.690;2023-08-12T15:23:04;1;;;1;;
80619;SDS011;69979;53.682;-2.690;2023-08-12T15:25:29;1;;;1;;
80619;SDS011;69979;53.682;-2.690;2023-08-12T15:27:55;0;;;0;;
80619;SDS011;69979;53.682;-2.690;2023-08-12T15:30:20;1;;;1;;
80619;SDS011;69979;53.682;-2.690;2023-08-12T15:32:45;3;;;1;;
80619;SDS011;69979;53.682;-2.690;2023-08-12T15:35:11;1;;;0;;
80619;SDS011;69979;53.682;-2.690;2023-08-12T15:37:36;3;;;3;;
80619;SDS011;69979;53.682;-2.690;2023-08-12T15:40:02;1;;;1;;
80619;SDS011;69979;53.682;-2.690;2023-08-12T15:42:27;1;;;1;;
80619;SDS011;69979;53.682;-2.690;2023-08-12T15:44:52;2;;;2;;
80619;SDS011;69979;53.682;-2.690;2023-08-12T15:47:18;2;;;2;;
80619;SDS011;69979;53.682;-2.690;2023-08-12T15:49:43;2;;;2;;
80619;SDS011;69979;53.682;-2.690;2023-08-12T15:52:08;4;;;4;;